Time;durP1;ratioP1;P1;durP2;ratioP2;P2;SDS_P1;SDS_P2;PMS_P1;PMS_P2;Temp;Humidity;BMP_temperature;BMP_pressure;BME280_temperature;BME280_humidity;BME280_pressure;Samples;Min_cycle;Max_cycle;Signal;HPM_P1;HPM_P2
2024/03/16 00:00:43;;;;;;;6.57;5.93;;;;;;;11.18;100.00;100710.84;7731434;22;20293;-67
2024/03/16 00:04:04;;;;;;;8.37;5.13;;;;;;;11.16;100.00;100723.59;7737719;22;20211;-66
2024/03/16 00:07:25;;;;;;;7.63;4.37;;;;;;;11.16;100.00;100726.28;7751323;22;20215;-67
2024/03/16 00:10:46;;;;;;;6.27;5.67;;;;;;;11.18;100.00;100708.97;7728188;22;20301;-68
2024/03/16 00:14:07;;;;;;;8.97;5.93;;;;;;;11.23;100.00;100728.28;7736708;22;20214;-67
2024/03/16 00:17:28;;;;;;;6.37;5.33;;;;;;;11.19;100.00;100724.16;7713189;22;20444;-67
2024/03/16 00:20:49;;;;;;;6.43;5.43;;;;;;;11.19;100.00;100720.63;7731552;22;20211;-67
2024/03/16 00:24:10;;;;;;;5.20;4.70;;;;;;;11.21;100.00;100714.09;7714326;22;20238;-69
2024/03/16 00:27:33;;;;;;;7.30;5.17;;;;;;;11.24;100.00;100708.38;7731882;22;20211;-66
2024/03/16 00:30:54;;;;;;;6.20;5.07;;;;;;;11.21;100.00;100718.63;7730421;22;20253;-67
2024/03/16 00:34:15;;;;;;;7.67;4.87;;;;;;;11.19;100.00;100712.53;7734468;22;20235;-68
2024/03/16 00:37:36;;;;;;;9.00;6.10;;;;;;;11.19;100.00;100721.47;7727583;22;20214;-68
2024/03/16 00:40:56;;;;;;;6.63;5.10;;;;;;;11.21;100.00;100714.09;7720806;22;20616;-66
2024/03/16 00:44:19;;;;;;;7.47;6.50;;;;;;;11.24;100.00;100713.78;7734408;22;20202;-67
2024/03/16 00:47:39;;;;;;;7.30;6.60;;;;;;;11.28;100.00;100720.59;7729270;22;20230;-66
2024/03/16 00:51:00;;;;;;;8.33;7.53;;;;;;;11.24;100.00;100721.03;7727804;22;20251;-67
2024/03/16 00:54:22;;;;;;;10.67;6.87;;;;;;;11.25;100.00;100704.69;7737417;22;20474;-67
2024/03/16 00:57:42;;;;;;;10.20;6.70;;;;;;;11.25;100.00;100714.63;7731466;22;20210;-66
2024/03/16 01:01:04;;;;;;;8.30;7.50;;;;;;;11.25;100.00;100718.19;7730829;22;20214;-66
2024/03/16 01:04:25;;;;;;;8.67;6.70;;;;;;;11.29;100.00;100721.44;7755158;22;20210;-67
2024/03/16 01:07:46;;;;;;;13.70;7.60;;;;;;;11.32;100.00;100704.13;7730058;22;20218;-67
2024/03/16 01:11:09;;;;;;;8.90;8.00;;;;;;;11.39;100.00;100705.25;7731446;22;20214;-67
2024/03/16 01:14:29;;;;;;;10.73;6.93;;;;;;;11.38;100.00;100700.84;7735299;22;20215;-67
2024/03/16 01:17:50;;;;;;;12.60;8.43;;;;;;;11.39;100.00;100699.84;7729497;22;20268;-68
2024/03/16 01:21:11;;;;;;;8.47;7.60;;;;;;;11.37;100.00;100691.88;7729676;22;20210;-66
2024/03/16 01:24:32;;;;;;;10.37;7.70;;;;;;;11.36;100.00;100686.63;7737116;22;20282;-67
2024/03/16 01:27:54;;;;;;;13.77;8.60;;;;;;;11.37;100.00;100691.06;7730164;22;20206;-66
2024/03/16 01:31:29;;;;;;;12.27;8.90;;;;;;;11.39;100.00;100686.34;7714414;22;20214;-67
2024/03/16 01:34:50;;;;;;;11.93;9.70;;;;;;;11.41;100.00;100700.56;7720429;22;20214;-66
2024/03/16 01:38:11;;;;;;;14.33;8.87;;;;;;;11.40;100.00;100697.00;7734279;22;20215;-67
2024/03/16 01:41:32;;;;;;;13.30;9.53;;;;;;;11.43;100.00;100682.38;7731294;22;20214;-68
2024/03/16 01:45:02;;;;;;;20.57;9.57;;;;;;;11.34;100.00;100685.94;7737450;22;20214;-67
2024/03/16 01:48:24;;;;;;;15.20;10.57;;;;;;;11.32;100.00;100683.38;7754137;22;20218;-67
2024/03/16 01:51:45;;;;;;;14.57;9.63;;;;;;;11.34;100.00;100689.50;7752236;22;20211;-65
2024/03/16 01:55:06;;;;;;;12.10;10.10;;;;;;;11.39;100.00;100679.09;7734299;22;20218;-66
2024/03/16 01:58:28;;;;;;;10.87;9.03;;;;;;;11.32;100.00;100682.53;7742392;22;20539;-67
2024/03/16 02:01:48;;;;;;;11.50;8.57;;;;;;;11.30;100.00;100676.44;7751734;22;20251;-66
2024/03/16 02:05:09;;;;;;;12.47;9.40;;;;;;;11.27;100.00;100691.91;7734753;22;20210;-66
2024/03/16 02:08:30;;;;;;;12.20;10.90;;;;;;;11.26;100.00;100676.69;7739490;22;20210;-67
2024/03/16 02:11:51;;;;;;;15.80;11.10;;;;;;;11.23;100.00;100673.47;7733446;22;20206;-67
2024/03/16 02:15:13;;;;;;;15.50;9.93;;;;;;;11.24;100.00;100672.47;7755607;22;20553;-66
2024/03/16 02:18:35;;;;;;;12.97;10.07;;;;;;;11.17;100.00;100669.50;7735959;22;20206;-66
2024/03/16 02:21:55;;;;;;;11.67;10.43;;;;;;;11.18;100.00;100681.97;7754858;22;20850;-68
2024/03/16 02:25:17;;;;;;;12.53;10.50;;;;;;;11.22;100.00;100672.59;7754985;22;20207;-66
2024/03/16 02:28:38;;;;;;;13.20;10.90;;;;;;;11.19;100.00;100682.84;7745371;22;20575;-66
2024/03/16 02:31:59;;;;;;;14.33;11.00;;;;;;;11.21;100.00;100676.31;7746764;22;20302;-66
2024/03/16 02:35:20;;;;;;;12.30;10.67;;;;;;;11.20;100.00;100684.56;7753647;22;20218;-66
2024/03/16 02:38:41;;;;;;;10.77;9.70;;;;;;;11.22;100.00;100683.38;7758418;22;20631;-67
2024/03/16 02:42:02;;;;;;;12.03;10.90;;;;;;;11.24;100.00;100677.88;7731724;22;20286;-67
2024/03/16 02:45:23;;;;;;;12.93;11.63;;;;;;;11.23;100.00;100674.31;7754863;22;20203;-66
2024/03/16 02:48:45;;;;;;;15.43;12.03;;;;;;;11.24;100.00;100677.88;7755700;22;20214;-66
2024/03/16 02:52:06;;;;;;;11.83;10.37;;;;;;;11.23;100.00;100674.31;7753467;22;20218;-67
2024/03/16 02:55:27;;;;;;;13.37;12.07;;;;;;;11.28;100.00;100677.41;7740114;22;20218;-67
2024/03/16 02:58:48;;;;;;;11.47;9.67;;;;;;;11.26;100.00;100676.69;7759360;22;20214;-67
2024/03/16 03:02:10;;;;;;;17.17;11.07;;;;;;;11.32;100.00;100685.22;7729627;22;20219;-66
2024/03/16 03:05:30;;;;;;;14.17;12.50;;;;;;;11.36;100.00;100678.53;7753537;22;20442;-68
2024/03/16 03:08:51;;;;;;;12.07;10.43;;;;;;;11.31;100.00;100681.66;7759578;22;20218;-67
2024/03/16 03:12:12;;;;;;;15.03;11.20;;;;;;;11.32;100.00;100679.84;7755226;22;20218;-67
2024/03/16 03:15:35;;;;;;;11.53;10.33;;;;;;;11.32;100.00;100686.09;7753863;22;20691;-66
2024/03/16 03:18:56;;;;;;;12.13;10.73;;;;;;;11.33;100.00;100684.25;7757242;22;20286;-68
2024/03/16 03:22:17;;;;;;;12.77;10.83;;;;;;;11.30;100.00;100679.13;7753786;22;20557;-67
2024/03/16 03:25:38;;;;;;;13.23;11.83;;;;;;;11.26;100.00;100678.56;7750621;22;20445;-66
2024/03/16 03:28:58;;;;;;;17.27;10.87;;;;;;;11.29;100.00;100672.88;7757818;22;20214;-67
2024/03/16 03:32:20;;;;;;;12.60;11.30;;;;;;;11.22;100.00;100678.00;7751282;22;20207;-66
2024/03/16 03:35:43;;;;;;;14.37;12.80;;;;;;;11.20;100.00;100674.59;7752279;22;20289;-67
2024/03/16 03:39:04;;;;;;;15.20;11.80;;;;;;;11.23;100.00;100679.72;7744142;22;20214;-68
2024/03/16 03:42:25;;;;;;;17.07;11.20;;;;;;;11.25;100.00;100683.13;7754959;22;20270;-66
2024/03/16 03:45:50;;;;;;;11.73;10.13;;;;;;;11.27;100.00;100674.88;7737266;22;20896;-67
2024/03/16 03:49:11;;;;;;;21.23;11.53;;;;;;;11.24;100.00;100685.97;7758767;22;20533;-67
2024/03/16 03:52:35;;;;;;;15.20;11.37;;;;;;;11.28;100.00;100688.19;7715554;22;20519;-68
2024/03/16 03:56:00;;;;;;;19.20;10.97;;;;;;;11.24;100.00;100678.69;7710290;22;20219;-67
2024/03/16 03:59:21;;;;;;;12.87;9.80;;;;;;;11.25;100.00;100685.81;7707072;22;20203;-66
2024/03/16 04:02:47;;;;;;;12.67;11.23;;;;;;;11.30;100.00;100684.53;7735884;22;20576;-66
2024/03/16 04:06:08;;;;;;;16.40;11.87;;;;;;;11.31;100.00;100678.13;7738329;22;20215;-67
2024/03/16 04:09:28;;;;;;;15.57;10.50;;;;;;;11.28;100.00;100681.97;7711113;22;20218;-67
2024/03/16 04:12:50;;;;;;;12.90;10.27;;;;;;;11.24;100.00;100678.69;7753126;22;20214;-66
2024/03/16 04:16:14;;;;;;;9.60;8.67;;;;;;;11.25;100.00;100683.13;7752894;22;20210;-67
2024/03/16 04:19:39;;;;;;;13.87;10.10;;;;;;;11.23;100.00;100677.00;7699713;22;20214;-67
2024/03/16 04:23:01;;;;;;;10.43;9.40;;;;;;;11.27;100.00;100673.03;7701899;22;20223;-66
2024/03/16 04:26:22;;;;;;;10.40;8.63;;;;;;;11.31;100.00;100689.75;7707869;22;20294;-66
2024/03/16 04:29:43;;;;;;;13.23;9.10;;;;;;;11.28;100.00;100671.19;7686412;23;20214;-66
2024/03/16 04:33:07;;;;;;;12.53;9.60;;;;;;;11.28;100.00;100687.38;7733854;22;20461;-66
2024/03/16 04:36:27;;;;;;;10.50;8.70;;;;;;;11.31;100.00;100678.97;7736168;22;20207;-66
2024/03/16 04:39:48;;;;;;;11.37;7.90;;;;;;;11.29;100.00;100683.66;7721717;22;20870;-66
2024/03/16 04:43:10;;;;;;;15.60;9.10;;;;;;;11.30;100.00;100681.81;7733887;22;20223;-67
2024/03/16 04:46:33;;;;;;;15.73;8.80;;;;;;;11.30;100.00;100681.81;7729047;22;20282;-67
2024/03/16 04:49:54;;;;;;;18.70;8.43;;;;;;;11.30;100.00;100695.31;7734789;22;20214;-67
2024/03/16 04:53:14;;;;;;;13.20;8.77;;;;;;;11.24;100.00;100694.88;7734196;22;20234;-67
2024/03/16 04:56:36;;;;;;;14.07;9.17;;;;;;;11.24;100.00;100694.06;7730031;22;20583;-67
2024/03/16 04:59:56;;;;;;;20.40;8.57;;;;;;;11.20;100.00;100687.25;7736443;22;20206;-67
2024/03/16 05:03:18;;;;;;;15.47;8.20;;;;;;;11.18;100.00;100695.47;7732362;22;20683;-67
2024/03/16 05:06:40;;;;;;;9.57;8.40;;;;;;;11.07;100.00;100692.94;7729455;22;20237;-67
2024/03/16 05:10:01;;;;;;;17.00;8.73;;;;;;;11.03;100.00;100693.38;7738083;22;20217;-67
2024/03/16 05:13:22;;;;;;;8.80;7.87;;;;;;;10.93;100.00;100689.84;7737189;22;20222;-65
2024/03/16 05:16:43;;;;;;;13.33;9.10;;;;;;;10.83;100.00;100695.22;7729558;22;20219;-67
2024/03/16 05:20:04;;;;;;;10.20;8.17;;;;;;;10.84;100.00;100690.69;7735688;22;20211;-66
2024/03/16 05:23:26;;;;;;;8.33;7.50;;;;;;;10.79;100.00;100696.50;7757117;22;20459;-66
2024/03/16 05:26:47;;;;;;;17.33;9.30;;;;;;;10.81;100.00;100701.75;7731814;22;20206;-66
2024/03/16 05:30:08;;;;;;;20.83;9.40;;;;;;;10.97;100.00;100761.38;7731000;22;20251;-66
2024/03/16 05:33:29;;;;;;;7.97;4.67;;;;;;;10.85;100.00;100759.78;7734118;22;20211;-66
2024/03/16 05:36:51;;;;;;;3.60;3.23;;;;;;;10.58;100.00;100771.25;7733676;22;20206;-66
2024/03/16 05:40:11;;;;;;;2.37;2.07;;;;;;;10.37;100.00;100767.78;7735452;22;20301;-66
2024/03/16 05:43:33;;;;;;;2.07;1.60;;;;;;;10.36;100.00;100775.06;7738106;22;20214;-67
2024/03/16 05:46:53;;;;;;;1.40;1.30;;;;;;;10.32;100.00;100781.69;7691937;22;20210;-67
2024/03/16 05:50:14;;;;;;;3.80;1.30;;;;;;;10.26;100.00;100776.00;7734298;22;20206;-66
2024/03/16 05:53:35;;;;;;;1.53;1.10;;;;;;;10.23;100.00;100787.91;7739419;22;20210;-66
2024/03/16 05:56:56;;;;;;;1.87;1.30;;;;;;;10.08;100.00;100799.13;7733424;22;20206;-67
2024/03/16 06:00:20;;;;;;;1.67;1.53;;;;;;;10.12;100.00;100808.69;7736409;22;20207;-66
2024/03/16 06:03:41;;;;;;;3.33;1.53;;;;;;;9.99;100.00;100813.41;7757427;22;20517;-66
2024/03/16 06:07:02;;;;;;;1.07;1.07;;;;;;;9.97;100.00;100818.09;7731663;22;20214;-67
2024/03/16 06:10:23;;;;;;;1.10;1.10;;;;;;;10.00;100.00;100832.13;7735968;22;20498;-65
2024/03/16 06:13:44;;;;;;;1.10;1.10;;;;;;;10.03;100.00;100837.25;7739159;22;20218;-66
2024/03/16 06:17:05;;;;;;;1.87;1.70;;;;;;;10.06;100.00;100838.81;7731810;22;20255;-67
2024/03/16 06:20:26;;;;;;;1.70;1.60;;;;;;;9.99;100.00;100846.56;7754221;22;20207;-67
2024/03/16 06:23:48;;;;;;;4.27;1.60;;;;;;;10.05;100.00;100847.91;7738949;22;20281;-67
2024/03/16 06:27:11;;;;;;;3.53;2.50;;;;;;;9.89;100.00;100848.34;7733113;22;20215;-66
2024/03/16 06:30:32;;;;;;;3.00;2.20;;;;;;;9.91;100.00;100873.31;7732866;22;20210;-67
2024/03/16 06:33:53;;;;;;;2.37;2.17;;;;;;;9.96;100.00;100881.00;7734452;22;20238;-66
2024/03/16 06:37:14;;;;;;;2.93;2.07;;;;;;;9.94;100.00;100885.66;7732405;22;20317;-67
2024/03/16 06:40:35;;;;;;;2.43;2.03;;;;;;;9.83;100.00;100893.78;7730138;22;20210;-66
2024/03/16 06:43:56;;;;;;;5.40;3.17;;;;;;;9.78;100.00;100914.88;7738078;22;20235;-67
2024/03/16 06:47:18;;;;;;;2.07;1.67;;;;;;;9.63;100.00;100920.59;7747732;22;20206;-67
2024/03/16 06:50:39;;;;;;;2.00;1.90;;;;;;;9.72;100.00;100937.78;7710466;22;20446;-66
2024/03/16 06:54:00;;;;;;;5.53;1.80;;;;;;;9.64;100.00;100941.13;7722515;22;20215;-66
2024/03/16 06:57:22;;;;;;;3.83;2.77;;;;;;;9.59;100.00;100956.81;7731511;22;20255;-66
2024/03/16 07:00:43;;;;;;;2.37;1.97;;;;;;;9.54;100.00;100959.03;7727114;22;20218;-66
2024/03/16 07:04:04;;;;;;;5.73;3.63;;;;;;;9.37;100.00;100982.91;7736966;22;20301;-66
2024/03/16 07:07:24;;;;;;;3.43;3.03;;;;;;;9.21;100.00;100991.41;7726432;22;20321;-66
2024/03/16 07:10:45;;;;;;;5.33;3.80;;;;;;;9.18;100.00;101002.41;7731821;22;20210;-66
2024/03/16 07:14:07;;;;;;;5.70;3.47;;;;;;;9.26;100.00;101002.63;7738175;22;20206;-66
2024/03/16 07:17:31;;;;;;;7.10;4.37;;;;;;;9.41;100.00;101006.75;7724855;22;20210;-66
2024/03/16 07:20:52;;;;;;;6.67;3.77;;;;;;;9.54;100.00;101023.63;7730419;22;20285;-65
2024/03/16 07:24:15;;;;;;;4.90;3.70;;;;;;;9.63;100.00;101017.50;7736943;22;20928;-67
2024/03/16 07:27:36;;;;;;;9.87;3.87;;;;;;;9.44;100.00;101035.25;7730966;22;20229;-67
2024/03/16 07:30:57;;;;;;;8.90;2.97;;;;;;;9.25;100.00;101041.28;7730451;22;20218;-67
2024/03/16 07:34:17;;;;;;;10.87;3.33;;;;;;;9.27;100.00;101055.47;7734810;22;20214;-68
2024/03/16 07:37:38;;;;;;;8.53;4.30;;;;;;;9.11;100.00;101064.88;7728539;22;20218;-66
2024/03/16 07:40:59;;;;;;;4.50;2.77;;;;;;;9.22;100.00;101081.03;7729403;22;20285;-66
2024/03/16 07:44:20;;;;;;;6.10;2.70;;;;;;;9.19;100.00;101087.50;7736332;22;20214;-66
2024/03/16 07:47:44;;;;;;;9.83;3.57;;;;;;;9.08;100.00;101094.69;7728661;22;20218;-67
2024/03/16 07:51:05;;;;;;;4.67;3.00;;;;;;;8.95;100.00;101110.94;7731563;22;20215;-67
2024/03/16 07:54:26;;;;;;;11.13;3.40;;;;;;;8.79;100.00;101118.47;7735686;22;20852;-67
2024/03/16 07:57:48;;;;;;;8.70;2.97;;;;;;;8.86;100.00;101138.56;7733639;22;20210;-66
2024/03/16 08:01:10;;;;;;;10.27;3.67;;;;;;;9.01;100.00;101137.34;7727840;22;20766;-67
2024/03/16 08:04:33;;;;;;;9.47;3.33;;;;;;;9.08;100.00;101157.41;7734677;22;20210;-65
2024/03/16 08:07:54;;;;;;;9.43;2.80;;;;;;;9.10;100.00;101159.97;7731776;22;20215;-67
2024/03/16 08:11:15;;;;;;;8.10;2.27;;;;;;;9.26;100.00;101158.63;7731855;22;20214;-66
2024/03/16 08:14:36;;;;;;;4.63;2.37;;;;;;;9.29;100.00;101162.94;7735372;22;20214;-66
2024/03/16 08:18:00;;;;;;;4.60;2.33;;;;;;;9.19;100.00;101170.00;7712450;22;20214;-66
2024/03/16 08:21:21;;;;;;;6.43;2.70;;;;;;;9.19;100.00;101186.16;7728886;22;20306;-66
2024/03/16 08:24:42;;;;;;;4.27;1.80;;;;;;;9.15;100.00;101192.75;7734206;22;20214;-65
2024/03/16 08:28:03;;;;;;;4.20;1.87;;;;;;;9.10;100.00;101203.00;7726891;22;20215;-65
2024/03/16 08:31:24;;;;;;;8.03;3.07;;;;;;;9.14;100.00;101209.84;7723471;22;20214;-65
2024/03/16 08:34:45;;;;;;;7.10;2.97;;;;;;;9.10;100.00;101224.50;7730347;22;20215;-66
2024/03/16 08:38:06;;;;;;;2.90;2.17;;;;;;;9.27;100.00;101221.38;7718862;22;20287;-67
2024/03/16 08:41:26;;;;;;;5.70;2.47;;;;;;;9.41;100.00;101226.53;7725281;22;20214;-66
2024/03/16 08:44:47;;;;;;;5.47;4.80;;;;;;;9.37;100.00;101228.63;7734323;22;20214;-66
2024/03/16 08:48:08;;;;;;;10.20;2.83;;;;;;;9.05;100.00;101234.78;7729777;22;20456;-65
2024/03/16 08:51:29;;;;;;;6.30;2.10;;;;;;;8.98;100.00;101242.47;7711434;22;20281;-66
2024/03/16 08:54:54;;;;;;;4.30;2.53;;;;;;;8.95;100.00;101241.84;7752623;22;20214;-66
2024/03/16 08:58:15;;;;;;;2.50;2.23;;;;;;;9.14;100.00;101237.59;7734216;22;20214;-67
2024/03/16 09:01:37;;;;;;;4.90;1.87;;;;;;;9.25;100.00;101247.53;7726218;22;20236;-66
2024/03/16 09:04:57;;;;;;;8.63;2.17;;;;;;;9.03;100.00;101258.25;7731230;22;20616;-66
2024/03/16 09:08:18;;;;;;;3.67;2.03;;;;;;;9.17;100.00;101261.59;7736541;22;20210;-67
2024/03/16 09:11:39;;;;;;;4.07;2.33;;;;;;;9.35;100.00;101268.22;7733174;22;20202;-66
2024/03/16 09:15:00;;;;;;;4.10;2.40;;;;;;;9.33;100.00;101280.09;7737100;22;20496;-65
2024/03/16 09:18:21;;;;;;;2.97;2.50;;;;;;;9.30;100.00;101281.19;7735275;22;20210;-66
2024/03/16 09:21:42;;;;;;;4.43;2.17;;;;;;;9.29;100.00;101287.53;7730045;22;20218;-65
2024/03/16 09:25:05;;;;;;;8.63;2.47;;;;;;;9.51;100.00;101297.50;7738698;22;20298;-66
2024/03/16 09:28:26;;;;;;;3.53;2.17;;;;;;;10.28;100.00;101294.88;7740158;22;20214;-65
2024/03/16 09:31:47;;;;;;;7.30;2.40;;;;;;;10.35;100.00;101300.63;7718344;22;20613;-66
2024/03/16 09:35:10;;;;;;;4.83;1.80;;;;;;;10.48;100.00;101292.41;7729280;22;20568;-67
2024/03/16 09:38:32;;;;;;;4.07;1.87;;;;;;;11.01;100.00;101305.03;7758474;22;20211;-66
2024/03/16 09:41:53;;;;;;;2.63;2.43;;;;;;;11.38;100.00;101305.44;7729052;22;20210;-67
2024/03/16 09:45:17;;;;;;;2.53;1.47;;;;;;;11.54;100.00;101309.41;7735082;22;20242;-67
2024/03/16 09:48:38;;;;;;;2.90;1.47;;;;;;;11.47;100.00;101305.53;7735468;22;20215;-67
2024/03/16 09:51:59;;;;;;;6.00;2.80;;;;;;;11.31;100.00;101317.75;7732113;22;20290;-66
2024/03/16 09:55:23;;;;;;;4.77;1.87;;;;;;;10.92;100.00;101332.75;7733829;22;20288;-66
2024/03/16 09:58:44;;;;;;;3.63;1.80;;;;;;;10.81;100.00;101355.22;7741129;22;20214;-67
2024/03/16 10:02:06;;;;;;;5.13;1.70;;;;;;;10.56;100.00;101358.19;7727501;22;20650;-67
2024/03/16 10:05:27;;;;;;;2.13;1.50;;;;;;;10.75;100.00;101374.59;7747517;22;20253;-67
2024/03/16 10:08:48;;;;;;;9.40;2.17;;;;;;;10.20;100.00;101382.72;7712325;22;20605;-67
2024/03/16 10:12:09;;;;;;;3.40;2.13;;;;;;;9.99;100.00;101378.97;7732526;22;20214;-67
2024/03/16 10:15:31;;;;;;;5.90;2.53;;;;;;;10.35;100.00;101378.78;7731037;22;20215;-65
2024/03/16 10:18:53;;;;;;;4.20;1.80;;;;;;;10.94;100.00;101392.81;7736453;22;20214;-66
2024/03/16 10:22:14;;;;;;;5.43;2.50;;;;;;;11.39;100.00;101389.00;7732950;22;20548;-66
2024/03/16 10:25:35;;;;;;;9.60;3.03;;;;;;;12.14;100.00;101386.19;7730726;22;20218;-66
2024/03/16 10:28:56;;;;;;;6.20;2.83;;;;;;;10.91;100.00;101401.19;7737746;22;20215;-67
2024/03/16 10:32:18;;;;;;;6.30;2.17;;;;;;;10.69;100.00;101407.47;7729269;22;20206;-66
2024/03/16 10:35:40;;;;;;;7.13;2.53;;;;;;;10.98;100.00;101421.25;7710298;23;20219;-67
2024/03/16 10:39:04;;;;;;;7.40;2.23;;;;;;;10.97;100.00;101427.66;7720156;23;20215;-66
2024/03/16 10:42:25;;;;;;;5.57;2.23;;;;;;;11.51;100.00;101411.41;7714885;23;20247;-66
2024/03/16 10:45:46;;;;;;;5.80;2.30;;;;;;;11.32;100.00;101432.84;7710647;23;20223;-66
2024/03/16 10:49:07;;;;;;;4.30;2.00;;;;;;;11.13;100.00;101434.38;7676238;23;20521;-66
2024/03/16 10:52:28;;;;;;;5.47;2.30;;;;;;;11.34;100.00;101439.84;7712165;23;20295;-66
2024/03/16 10:55:49;;;;;;;3.67;2.17;;;;;;;15.69;100.00;101434.47;7711400;23;20271;-66
2024/03/16 10:59:10;;;;;;;6.57;1.70;;;;;;;14.71;100.00;101449.75;7718822;23;20215;-66
2024/03/16 11:02:31;;;;;;;6.13;2.53;;;;;;;13.26;100.00;101450.88;7710471;23;20211;-66
2024/03/16 11:05:56;;;;;;;13.17;3.40;;;;;;;13.87;100.00;101458.78;7707899;23;20219;-67
2024/03/16 11:09:19;;;;;;;9.07;2.57;;;;;;;15.06;100.00;101461.59;7714896;23;20295;-67
2024/03/16 11:12:45;;;;;;;3.27;1.90;;;;;;;18.05;88.39;101456.31;7711121;23;20207;-67
2024/03/16 11:16:25;;;;;;;10.55;3.30;;;;;;;18.05;76.82;101459.03;7712439;23;20215;-67
2024/03/16 11:19:47;;;;;;;4.40;2.17;;;;;;;18.34;74.98;101467.56;7716321;23;20223;-67
2024/03/16 11:23:08;;;;;;;3.28;2.28;;;;;;;19.58;66.89;101473.22;7678081;23;20219;-67
2024/03/16 11:26:37;;;;;;;4.32;2.03;;;;;;;19.96;62.21;101478.78;7690474;23;20214;-66
2024/03/16 11:29:58;;;;;;;6.25;2.30;;;;;;;19.62;54.99;101473.69;7717567;23;20457;-66
2024/03/16 11:33:18;;;;;;;5.75;2.22;;;;;;;15.88;67.70;101484.13;7713320;23;20215;-67
2024/03/16 11:36:41;;;;;;;8.50;1.90;;;;;;;14.69;78.51;101498.78;7709621;23;20214;-66
2024/03/16 11:40:02;;;;;;;4.28;2.10;;;;;;;14.63;80.89;101496.66;7720061;23;20211;-66
2024/03/16 11:43:23;;;;;;;8.15;2.40;;;;;;;14.42;87.04;101504.13;7717768;23;20297;-67
2024/03/16 11:46:45;;;;;;;4.53;2.10;;;;;;;14.90;82.92;101498.56;7710296;23;20219;-66
2024/03/16 11:50:08;;;;;;;5.82;2.42;;;;;;;16.03;78.00;101514.34;7713269;23;20211;-66
2024/03/16 11:53:29;;;;;;;4.60;1.98;;;;;;;20.71;60.97;101499.72;7718022;23;20290;-67
2024/03/16 11:56:50;;;;;;;7.03;2.85;;;;;;;16.19;64.74;101509.06;7714392;23;20784;-66
2024/03/16 12:00:12;;;;;;;6.40;2.75;;;;;;;19.32;61.00;101520.97;7714259;23;20238;-65
2024/03/16 12:03:33;;;;;;;5.78;2.50;;;;;;;16.45;64.49;101531.75;7714281;23;20568;-66
2024/03/16 12:06:54;;;;;;;5.70;2.88;;;;;;;14.20;83.20;101537.81;7712328;23;20245;-65
2024/03/16 12:10:14;;;;;;;7.88;2.50;;;;;;;14.12;89.42;101548.50;7711083;23;20220;-67
2024/03/16 12:13:35;;;;;;;6.63;3.03;;;;;;;16.64;80.27;101538.91;7720609;23;20600;-67
2024/03/16 12:16:56;;;;;;;6.40;2.77;;;;;;;14.28;77.84;101548.84;7708407;23;20215;-67
2024/03/16 12:20:17;;;;;;;5.25;2.20;;;;;;;16.69;74.83;101563.75;7713418;23;20762;-65
2024/03/16 12:23:38;;;;;;;6.32;1.58;;;;;;;20.52;52.30;101550.41;7718689;23;20248;-65
2024/03/16 12:26:59;;;;;;;6.90;2.10;;;;;;;22.21;42.60;101555.81;7708999;23;20227;-65
2024/03/16 12:30:20;;;;;;;3.88;2.10;;;;;;;21.62;41.99;101541.34;7713859;23;20211;-66
2024/03/16 12:33:41;;;;;;;8.70;2.95;;;;;;;21.95;40.51;101550.88;7714781;23;20215;-66
2024/03/16 12:37:02;;;;;;;5.05;2.10;;;;;;;22.04;38.23;101554.34;7674046;23;20573;-67
2024/03/16 12:40:22;;;;;;;7.80;2.83;;;;;;;21.71;37.00;101551.19;7708603;23;20850;-67
2024/03/16 12:43:43;;;;;;;6.15;2.80;;;;;;;22.13;38.37;101558.69;7719652;23;20210;-67
2024/03/16 12:47:05;;;;;;;7.55;2.67;;;;;;;19.87;44.59;101581.97;7709450;23;20703;-67
2024/03/16 12:50:26;;;;;;;8.55;2.72;;;;;;;21.34;39.47;101590.56;7709619;23;20290;-67
2024/03/16 12:53:46;;;;;;;5.63;2.90;;;;;;;16.48;52.35;101590.47;7718255;23;20301;-67
2024/03/16 12:57:09;;;;;;;6.68;3.17;;;;;;;15.44;63.34;101607.31;7709236;23;20203;-68
2024/03/16 13:00:29;;;;;;;4.93;2.97;;;;;;;14.77;71.93;101606.63;7714742;23;20214;-65
2024/03/16 13:03:50;;;;;;;7.45;3.47;;;;;;;13.86;65.62;101612.41;7717795;23;20429;-65
2024/03/16 13:07:13;;;;;;;4.93;2.92;;;;;;;13.96;64.93;101629.53;7711825;23;20214;-66
2024/03/16 13:10:38;;;;;;;6.67;2.60;;;;;;;13.84;64.93;101655.06;7711936;23;20215;-64
2024/03/16 13:13:58;;;;;;;5.07;2.77;;;;;;;17.02;59.59;101617.44;7703052;23;20207;-66
2024/03/16 13:17:19;;;;;;;7.83;2.77;;;;;;;18.60;49.39;101618.47;7703546;23;20203;-66
2024/03/16 13:20:39;;;;;;;6.07;2.67;;;;;;;21.08;42.36;101609.38;7714178;23;20248;-66
2024/03/16 13:24:00;;;;;;;10.68;2.97;;;;;;;20.07;42.15;101616.06;7694964;23;20230;-66
2024/03/16 13:27:21;;;;;;;6.97;2.38;;;;;;;17.95;45.46;101613.88;7711992;23;20219;-66
2024/03/16 13:30:42;;;;;;;9.18;3.28;;;;;;;18.29;44.92;101637.34;7704121;23;20552;-66
2024/03/16 13:34:05;;;;;;;6.95;2.88;;;;;;;19.63;43.76;101628.63;7718220;23;20566;-67
2024/03/16 13:37:25;;;;;;;6.57;2.88;;;;;;;19.66;43.87;101625.50;7710366;23;20280;-66
2024/03/16 13:40:47;;;;;;;8.18;3.47;;;;;;;19.10;43.20;101637.41;7711082;23;20566;-65
2024/03/16 13:44:07;;;;;;;2.80;2.33;;;;;;;20.19;40.06;101624.75;7721435;23;20215;-66
2024/03/16 13:47:28;;;;;;;3.63;2.35;;;;;;;17.78;43.15;101661.22;7690710;23;20253;-65
2024/03/16 13:50:48;;;;;;;5.90;2.78;;;;;;;16.95;45.19;101676.31;7734258;22;20288;-65
2024/03/16 13:54:09;;;;;;;9.85;2.97;;;;;;;14.63;54.40;101688.47;7744594;22;20553;-66
2024/03/16 13:57:30;;;;;;;8.13;3.37;;;;;;;14.38;61.04;101668.19;7700669;23;20216;-65
2024/03/16 14:00:51;;;;;;;6.30;3.27;;;;;;;15.81;61.66;101670.66;7730579;22;20651;-65
2024/03/16 14:04:12;;;;;;;10.87;3.23;;;;;;;14.41;58.79;101667.91;7744750;22;20554;-65
2024/03/16 14:07:33;;;;;;;7.50;2.73;;;;;;;15.38;56.67;101670.38;7722445;22;20561;-65
2024/03/16 14:10:56;;;;;;;9.60;3.13;;;;;;;13.79;62.62;101667.31;7736242;22;20211;-65
2024/03/16 14:14:18;;;;;;;5.63;2.50;;;;;;;16.91;54.26;101671.34;7707170;23;20211;-66
2024/03/16 14:17:39;;;;;;;12.47;3.40;;;;;;;15.99;51.84;101670.72;7732655;22;20215;-66
2024/03/16 14:20:59;;;;;;;6.63;2.60;;;;;;;14.13;58.56;101676.81;7734725;22;20216;-66
2024/03/16 14:24:20;;;;;;;10.83;3.07;;;;;;;15.19;59.85;101686.72;7706877;23;20212;-65
2024/03/16 14:27:41;;;;;;;10.70;3.27;;;;;;;14.79;58.04;101684.19;7732346;22;20215;-66
2024/03/16 14:31:03;;;;;;;4.80;3.67;;;;;;;16.34;56.80;101694.41;7703671;23;20465;-65
2024/03/16 14:34:24;;;;;;;4.00;2.23;;;;;;;17.35;49.98;101684.81;7737793;22;20207;-66
2024/03/16 14:37:45;;;;;;;7.00;2.23;;;;;;;17.13;47.65;101689.91;7736461;22;21087;-66
2024/03/16 14:41:07;;;;;;;5.53;2.53;;;;;;;18.60;44.86;101677.72;7737002;22;20223;-66
2024/03/16 14:44:27;;;;;;;8.30;2.60;;;;;;;16.58;49.45;101698.25;7706017;23;20908;-66
2024/03/16 14:47:48;;;;;;;4.47;2.70;;;;;;;13.71;56.61;101738.44;7697539;23;20294;-66
2024/03/16 14:51:09;;;;;;;10.00;3.30;;;;;;;15.29;59.47;101711.16;7693756;23;20222;-65
2024/03/16 14:54:29;;;;;;;5.20;2.40;;;;;;;15.74;54.23;101715.78;7722635;23;20294;-66
2024/03/16 14:57:51;;;;;;;9.83;2.90;;;;;;;16.53;51.41;101718.81;7714450;23;20219;-67
2024/03/16 15:01:13;;;;;;;4.93;2.37;;;;;;;17.25;58.48;101737.72;7703353;23;20222;-66
2024/03/16 15:04:32;;;;;;;5.03;2.27;;;;;;;16.74;62.17;101724.81;7721455;23;20215;-66
2024/03/16 15:07:54;;;;;;;12.03;4.20;;;;;;;16.10;62.42;101732.22;7712324;23;20581;-67
2024/03/16 15:11:15;;;;;;;7.87;4.00;;;;;;;14.27;67.08;101741.50;7711381;23;20246;-66
2024/03/16 15:14:35;;;;;;;5.83;3.40;;;;;;;15.01;70.16;101743.63;7713755;23;20215;-65
2024/03/16 15:17:56;;;;;;;7.00;2.67;;;;;;;14.52;69.15;101754.59;7691010;23;20215;-65
2024/03/16 15:21:17;;;;;;;12.10;3.70;;;;;;;13.98;71.11;101760.38;7714807;23;21672;-66
2024/03/16 15:24:39;;;;;;;5.70;2.87;;;;;;;12.56;73.31;101769.16;7701625;23;20252;-65